Steeltown, Texas
Current Conditions -  °F | °C
As of 7:27 AM on Sunday 23 Nov 2014 (Local Time) from KBPT Reporting Station
Scattered Clouds Scattered Clouds  
Wind Chill: 59°   Ceiling: Unl
Heat Index: 59°   Visibility: 10mi
Dew Point: 58°   Wind: 3mph
Humidity: 96%   Direction: 230°SW
Pressure: 29.64"   Gusts: NA
Location:  29.9495°N, 93.9207°W
Report Text: KBPT 231327Z 23003KT 10SM SCT024 15/14 A2964 RMK AO2 T01500144
Loading
Personal Weather Stations






























Interactive Weather Map New forecast layout! Learn more

10-Day Weather Forecast

Advertisements
Track Severe Weather on mobile